createdAt,value
2018-09-24T00:00:51.982Z,64.60
2018-09-24T00:03:23.475Z,64.50
2018-09-24T00:05:57.597Z,64.70
2018-09-24T00:08:28.870Z,64.70
2018-09-24T00:11:00.608Z,64.80
2018-09-24T00:13:31.563Z,64.90
2018-09-24T00:16:02.800Z,65.00
2018-09-24T00:18:35.393Z,65.10
2018-09-24T00:21:06.824Z,65.10
2018-09-24T00:23:38.549Z,65.00
2018-09-24T00:26:10.540Z,65.10
2018-09-24T00:28:42.657Z,65.10
2018-09-24T00:31:13.770Z,65.10
2018-09-24T00:33:44.870Z,65.20
2018-09-24T00:36:15.758Z,65.50
2018-09-24T00:38:48.109Z,65.50
2018-09-24T00:41:19.254Z,65.40
2018-09-24T00:43:50.484Z,65.30
2018-09-24T00:46:21.655Z,65.40
2018-09-24T00:48:52.786Z,65.30
2018-09-24T00:51:23.946Z,65.20
2018-09-24T00:53:55.211Z,65.10
2018-09-24T00:56:27.097Z,64.90
2018-09-24T00:58:58.358Z,64.70
2018-09-24T01:01:29.700Z,64.90
2018-09-24T01:04:00.967Z,64.50
2018-09-24T01:06:32.232Z,64.50
2018-09-24T01:09:03.936Z,64.40
2018-09-24T01:11:35.243Z,64.20
2018-09-24T01:14:06.355Z,64.10
2018-09-24T01:16:37.550Z,64.10
2018-09-24T01:19:08.909Z,63.90
2018-09-24T01:21:40.221Z,64.70
2018-09-24T01:24:11.436Z,64.10
2018-09-24T01:26:43.335Z,64.70
2018-09-24T01:29:14.463Z,64.40
2018-09-24T01:31:46.076Z,64.50
2018-09-24T01:34:17.215Z,64.60
2018-09-24T01:36:48.298Z,64.90
2018-09-24T01:39:19.441Z,64.90
2018-09-24T01:41:50.527Z,65.10
2018-09-24T01:44:21.670Z,65.60
2018-09-24T01:46:52.663Z,64.90
2018-09-24T01:49:24.670Z,64.90
2018-09-24T01:51:55.634Z,65.10
2018-09-24T01:54:31.087Z,65.00
2018-09-24T01:57:02.161Z,65.20
2018-09-24T01:59:33.322Z,65.00
2018-09-24T02:02:04.451Z,65.00
2018-09-24T02:04:35.735Z,64.90
2018-09-24T02:07:06.659Z,64.80
2018-09-24T02:09:38.964Z,64.70
2018-09-24T02:12:10.139Z,64.80
2018-09-24T02:14:41.294Z,64.70
2018-09-24T02:17:20.134Z,64.80
2018-09-24T02:19:54.764Z,64.90
2018-09-24T02:22:28.755Z,64.70
2018-09-24T02:25:00.512Z,64.90
2018-09-24T02:27:31.899Z,64.80
2018-09-24T02:30:03.546Z,65.00
2018-09-24T02:32:34.930Z,64.90
2018-09-24T02:35:06.068Z,65.10
2018-09-24T02:37:37.303Z,65.10
2018-09-24T02:40:24.998Z,65.00
2018-09-24T02:42:56.174Z,65.20
2018-09-24T02:45:27.348Z,65.30
2018-09-24T02:47:58.456Z,65.30
2018-09-24T02:50:38.891Z,65.30
2018-09-24T02:53:10.137Z,65.60
2018-09-24T02:55:42.177Z,65.60
2018-09-24T02:58:18.768Z,65.70
2018-09-24T03:00:50.291Z,65.60
2018-09-24T03:03:21.392Z,65.20
2018-09-24T03:05:52.559Z,65.30
2018-09-24T03:08:24.482Z,65.10
2018-09-24T03:10:56.472Z,65.00
2018-09-24T03:13:28.434Z,65.00
2018-09-24T03:15:59.404Z,64.90
2018-09-24T03:18:30.697Z,65.00
2018-09-24T03:21:01.902Z,65.00
2018-09-24T03:23:32.894Z,65.20
2018-09-24T03:26:05.930Z,65.20
2018-09-24T03:28:37.350Z,65.20
2018-09-24T03:31:08.424Z,65.20
2018-09-24T03:33:39.319Z,65.30
2018-09-24T03:36:10.410Z,65.30
2018-09-24T03:38:41.570Z,65.40
2018-09-24T03:41:12.657Z,65.40
2018-09-24T03:43:43.694Z,65.50
2018-09-24T03:46:14.776Z,65.70
2018-09-24T03:48:45.927Z,65.80
2018-09-24T03:51:16.659Z,65.60
2018-09-24T03:53:47.753Z,65.70
2018-09-24T03:56:19.267Z,65.70
2018-09-24T03:58:50.415Z,65.40
2018-09-24T04:01:21.679Z,65.70
2018-09-24T04:03:52.766Z,65.60
2018-09-24T04:06:28.902Z,65.60
2018-09-24T04:09:04.995Z,65.60
2018-09-24T04:11:40.775Z,65.60
2018-09-24T04:14:17.028Z,65.90
2018-09-24T04:16:52.756Z,65.90
2018-09-24T04:19:29.131Z,66.00
2018-09-24T04:22:05.319Z,66.20
2018-09-24T04:24:41.639Z,66.00
2018-09-24T04:27:18.077Z,65.90
2018-09-24T04:29:54.233Z,65.70
2018-09-24T04:32:30.310Z,65.80
2018-09-24T04:35:06.316Z,65.60
2018-09-24T04:37:42.867Z,65.60
2018-09-24T04:40:19.104Z,65.50
2018-09-24T04:42:55.506Z,65.60
2018-09-24T04:45:31.517Z,65.80
2018-09-24T04:48:07.634Z,66.20
2018-09-24T04:50:43.891Z,66.00
2018-09-24T04:53:20.402Z,66.50
2018-09-24T04:55:56.489Z,66.60
2018-09-24T04:58:32.593Z,66.50
2018-09-24T05:01:09.205Z,66.40
2018-09-24T05:03:45.370Z,66.60
2018-09-24T05:06:21.425Z,66.40
2018-09-24T05:08:57.610Z,66.50
2018-09-24T05:11:33.616Z,66.40
2018-09-24T05:14:09.808Z,66.40
2018-09-24T05:16:45.885Z,66.30
2018-09-24T05:19:22.530Z,66.60
2018-09-24T05:21:58.806Z,66.20
2018-09-24T05:24:34.902Z,66.30
2018-09-24T05:27:10.999Z,66.40
2018-09-24T05:29:47.273Z,66.50
2018-09-24T05:32:23.521Z,66.30
2018-09-24T05:34:59.912Z,66.80
2018-09-24T05:37:36.062Z,66.40
2018-09-24T05:40:12.424Z,66.20
2018-09-24T05:42:48.668Z,66.20
2018-09-24T05:45:24.638Z,66.40
2018-09-24T05:48:00.729Z,66.70
2018-09-24T05:50:37.043Z,66.60
2018-09-24T05:53:13.334Z,66.70
2018-09-24T05:55:49.304Z,67.00
2018-09-24T05:58:25.289Z,67.70
2018-09-24T06:01:01.403Z,67.00
2018-09-24T06:03:37.564Z,67.60
2018-09-24T06:06:13.734Z,66.80
2018-09-24T06:08:49.887Z,67.00
2018-09-24T06:11:25.854Z,67.00
2018-09-24T06:14:01.805Z,67.10
2018-09-24T06:16:38.100Z,67.40
2018-09-24T06:19:14.198Z,67.60
2018-09-24T06:21:50.632Z,67.50
2018-09-24T06:24:26.567Z,67.90
2018-09-24T06:27:02.912Z,68.10
2018-09-24T06:29:38.998Z,67.70
2018-09-24T06:32:15.147Z,67.80
2018-09-24T06:34:51.004Z,67.80
2018-09-24T06:37:27.137Z,67.70
2018-09-24T06:40:03.226Z,67.70
2018-09-24T06:42:39.282Z,67.70
2018-09-24T06:45:15.242Z,67.60
2018-09-24T06:47:51.481Z,67.80
2018-09-24T06:50:28.149Z,67.90
2018-09-24T06:53:03.883Z,68.00
2018-09-24T06:55:40.076Z,67.90
2018-09-24T06:58:16.324Z,68.10
2018-09-24T07:00:52.756Z,67.80
2018-09-24T07:03:28.990Z,67.80
2018-09-24T07:06:05.086Z,67.80
2018-09-24T07:08:41.250Z,67.70
2018-09-24T07:11:17.253Z,67.70
2018-09-24T07:13:54.106Z,67.70
2018-09-24T07:16:30.307Z,67.80
2018-09-24T07:19:06.292Z,67.50
2018-09-24T07:21:42.195Z,67.30
2018-09-24T07:24:17.926Z,66.80
2018-09-24T07:26:53.776Z,66.90
2018-09-24T07:29:29.703Z,66.90
2018-09-24T07:32:05.711Z,66.40
2018-09-24T07:34:41.511Z,66.30
2018-09-24T07:37:17.135Z,66.10
2018-09-24T07:39:52.694Z,65.80
2018-09-24T07:42:28.319Z,65.80
2018-09-24T07:45:04.105Z,65.70
2018-09-24T07:47:40.018Z,65.60
2018-09-24T07:50:15.899Z,65.60
2018-09-24T07:52:51.727Z,65.60
2018-09-24T07:55:27.830Z,65.70
2018-09-24T07:58:03.847Z,65.60
2018-09-24T08:00:39.448Z,65.50
2018-09-24T08:03:15.567Z,65.30
2018-09-24T08:05:51.426Z,64.80
2018-09-24T08:08:27.254Z,64.80
2018-09-24T08:11:03.288Z,65.20
2018-09-24T08:13:39.056Z,65.30
2018-09-24T08:16:14.776Z,66.00
2018-09-24T08:18:50.446Z,65.30
2018-09-24T08:21:26.074Z,65.30
2018-09-24T08:24:01.783Z,64.90
2018-09-24T08:26:37.701Z,64.30
2018-09-24T08:29:14.195Z,64.10
2018-09-24T08:31:49.913Z,64.10
2018-09-24T08:34:26.014Z,64.20
2018-09-24T08:37:01.583Z,64.10
2018-09-24T08:39:37.270Z,64.20
2018-09-24T08:42:13.599Z,64.60
2018-09-24T08:44:49.570Z,64.10
2018-09-24T08:47:25.199Z,63.60
2018-09-24T08:50:01.002Z,63.70
2018-09-24T08:52:36.486Z,63.10
2018-09-24T08:55:12.241Z,62.70
2018-09-24T08:57:48.122Z,62.50
2018-09-24T09:00:23.687Z,62.40
2018-09-24T09:02:59.583Z,62.10
2018-09-24T09:05:35.208Z,61.90
2018-09-24T09:08:10.912Z,61.10
2018-09-24T09:10:46.996Z,60.50
2018-09-24T09:13:22.908Z,60.70
2018-09-24T09:15:59.098Z,60.60
2018-09-24T09:18:34.798Z,60.80
2018-09-24T09:21:10.759Z,60.80
2018-09-24T09:23:46.618Z,60.50
2018-09-24T09:26:22.364Z,60.60
2018-09-24T09:28:58.645Z,60.20
2018-09-24T09:31:34.183Z,60.30
2018-09-24T09:34:09.891Z,60.20
2018-09-24T09:36:45.658Z,60.00
2018-09-24T09:39:21.519Z,59.90
2018-09-24T09:41:57.213Z,59.80
2018-09-24T09:44:33.152Z,59.20
2018-09-24T09:47:08.993Z,59.20
2018-09-24T09:49:44.906Z,59.00
2018-09-24T09:52:20.478Z,58.90
2018-09-24T09:54:55.983Z,58.20
2018-09-24T09:57:39.915Z,58.30
2018-09-24T10:00:15.847Z,57.90
2018-09-24T10:02:51.621Z,57.70
2018-09-24T10:05:27.314Z,58.00
2018-09-24T10:08:03.270Z,57.50
2018-09-24T10:10:38.952Z,56.60
2018-09-24T10:13:14.581Z,56.90
2018-09-24T10:15:50.128Z,56.60
2018-09-24T10:18:26.143Z,56.30
2018-09-24T10:21:02.060Z,56.20
2018-09-24T10:23:37.626Z,56.40
2018-09-24T10:26:13.683Z,56.60
2018-09-24T10:28:49.284Z,56.20
2018-09-24T10:31:25.359Z,56.60
2018-09-24T10:34:01.287Z,55.90
2018-09-24T10:36:37.091Z,56.30
2018-09-24T10:39:14.543Z,56.80
2018-09-24T10:41:50.600Z,57.00
2018-09-24T10:44:26.545Z,56.40
2018-09-24T10:47:02.246Z,56.40
2018-09-24T10:49:38.061Z,56.40
2018-09-24T10:52:13.982Z,56.30
2018-09-24T10:54:50.107Z,56.30
2018-09-24T10:57:26.098Z,56.00
2018-09-24T11:00:01.981Z,56.00
2018-09-24T11:02:37.575Z,56.10
2018-09-24T11:05:13.459Z,56.10
2018-09-24T11:07:49.339Z,56.10
2018-09-24T11:10:25.511Z,56.10
2018-09-24T11:13:01.486Z,56.20
2018-09-24T11:15:37.133Z,56.10
2018-09-24T11:18:13.430Z,56.10
2018-09-24T11:20:49.692Z,56.00
2018-09-24T11:23:25.353Z,55.60
2018-09-24T11:26:01.127Z,55.10
2018-09-24T11:28:37.018Z,54.80
2018-09-24T11:31:13.136Z,55.00
2018-09-24T11:33:49.271Z,54.70
2018-09-24T11:36:25.485Z,54.70
2018-09-24T11:39:01.686Z,54.60
2018-09-24T11:41:37.455Z,54.70
2018-09-24T11:44:13.684Z,54.90
2018-09-24T11:46:49.843Z,54.80
2018-09-24T11:49:25.694Z,55.10
2018-09-24T11:52:01.663Z,54.90
2018-09-24T11:54:37.502Z,54.60
2018-09-24T11:57:13.436Z,54.60
2018-09-24T11:59:49.105Z,54.40
2018-09-24T12:02:25.405Z,54.20
2018-09-24T12:05:01.813Z,54.00
2018-09-24T12:07:37.912Z,54.30
2018-09-24T12:10:13.819Z,54.20
2018-09-24T12:12:49.948Z,54.00
2018-09-24T12:15:25.894Z,54.50
2018-09-24T12:18:02.062Z,54.70
2018-09-24T12:20:38.016Z,54.70
2018-09-24T12:23:14.331Z,54.70
2018-09-24T12:25:50.532Z,54.40
2018-09-24T12:28:26.532Z,54.60
2018-09-24T12:31:02.383Z,54.50
2018-09-24T12:33:38.165Z,54.00
2018-09-24T12:36:13.945Z,54.20
2018-09-24T12:38:49.614Z,54.40
2018-09-24T12:41:25.741Z,54.50
2018-09-24T12:44:01.250Z,53.90
2018-09-24T12:46:37.292Z,54.10
2018-09-24T12:49:13.323Z,54.10
2018-09-24T12:51:49.225Z,54.00
2018-09-24T12:54:25.118Z,53.90
2018-09-24T12:57:00.887Z,53.80
2018-09-24T12:59:36.459Z,53.60
2018-09-24T13:02:12.150Z,54.00
2018-09-24T13:04:48.031Z,53.60
2018-09-24T13:07:23.603Z,53.50
2018-09-24T13:09:59.328Z,52.70
2018-09-24T13:12:35.309Z,52.90
2018-09-24T13:15:11.034Z,52.30
2018-09-24T13:17:46.942Z,52.40
2018-09-24T13:20:22.723Z,52.50
2018-09-24T13:22:58.337Z,52.60
2018-09-24T13:25:33.987Z,52.70
2018-09-24T13:28:09.929Z,52.20
2018-09-24T13:30:45.953Z,52.40
2018-09-24T13:33:21.653Z,52.30
2018-09-24T13:35:57.318Z,52.60
2018-09-24T13:38:33.286Z,52.60
2018-09-24T13:41:09.111Z,52.50
2018-09-24T13:43:45.143Z,53.10
2018-09-24T13:46:20.881Z,53.10
2018-09-24T13:48:56.467Z,52.80
2018-09-24T13:51:32.285Z,52.70
2018-09-24T13:54:08.047Z,52.30
2018-09-24T13:56:43.729Z,52.60
2018-09-24T13:59:19.200Z,52.60
2018-09-24T14:01:55.024Z,52.60
2018-09-24T14:04:31.236Z,52.70
2018-09-24T14:07:06.933Z,52.50
2018-09-24T14:09:42.653Z,52.60
2018-09-24T14:12:18.341Z,52.80
2018-09-24T14:14:54.069Z,52.30
2018-09-24T14:17:29.904Z,52.50
2018-09-24T14:20:05.665Z,51.90
2018-09-24T14:22:41.441Z,52.30
2018-09-24T14:25:17.102Z,52.10
2018-09-24T14:27:52.600Z,52.10
2018-09-24T14:30:27.987Z,52.10
2018-09-24T14:33:03.925Z,52.60
2018-09-24T14:35:39.598Z,52.70
2018-09-24T14:38:15.509Z,52.20
2018-09-24T14:40:51.237Z,52.30
2018-09-24T14:43:27.159Z,52.50
2018-09-24T14:46:02.945Z,52.40
2018-09-24T14:48:38.636Z,52.50
2018-09-24T14:51:14.463Z,52.00
2018-09-24T14:53:50.301Z,51.60
2018-09-24T14:56:25.741Z,51.70
2018-09-24T14:59:01.465Z,51.50
2018-09-24T15:01:36.860Z,51.50
2018-09-24T15:04:12.700Z,51.10
2018-09-24T15:06:48.392Z,52.00
2018-09-24T15:09:24.209Z,52.30
2018-09-24T15:12:00.061Z,52.30
2018-09-24T15:14:35.823Z,52.30
2018-09-24T15:17:11.505Z,52.20
2018-09-24T15:19:47.534Z,52.30
2018-09-24T15:22:23.408Z,52.20
2018-09-24T15:24:58.912Z,52.30
2018-09-24T15:27:34.298Z,52.30
2018-09-24T15:30:12.070Z,52.30
2018-09-24T15:32:47.659Z,52.20
2018-09-24T15:35:23.369Z,52.30
2018-09-24T15:37:59.141Z,52.20
2018-09-24T15:40:34.828Z,51.80
2018-09-24T15:43:11.129Z,52.10
2018-09-24T15:45:51.994Z,52.20
2018-09-24T15:48:32.852Z,52.20
2018-09-24T15:51:13.792Z,52.10
2018-09-24T15:53:54.613Z,51.80
2018-09-24T15:56:35.481Z,51.90
2018-09-24T15:59:16.501Z,51.80
2018-09-24T16:01:52.301Z,52.10
2018-09-24T16:04:29.264Z,51.70
2018-09-24T16:07:05.088Z,51.90
2018-09-24T16:09:40.703Z,51.50
2018-09-24T16:12:16.648Z,51.90
2018-09-24T16:14:52.640Z,51.80
2018-09-24T16:17:29.755Z,51.80
2018-09-24T16:20:05.615Z,51.80
2018-09-24T16:22:41.789Z,51.60
2018-09-24T16:25:17.569Z,51.50
2018-09-24T16:27:53.825Z,51.60
2018-09-24T16:30:29.808Z,51.80
2018-09-24T16:33:05.449Z,52.40
2018-09-24T16:35:41.771Z,52.20
2018-09-24T16:38:17.439Z,52.10
2018-09-24T16:40:53.101Z,52.00
2018-09-24T16:43:28.610Z,52.40
2018-09-24T16:46:04.413Z,52.60
2018-09-24T16:48:40.063Z,52.50
2018-09-24T16:51:15.854Z,52.40
2018-09-24T16:53:52.045Z,52.60
2018-09-24T16:56:27.789Z,52.30
2018-09-24T16:59:03.457Z,52.60
2018-09-24T17:01:39.009Z,52.90
2018-09-24T17:04:14.700Z,53.10
2018-09-24T17:06:50.421Z,53.30
2018-09-24T17:09:25.955Z,53.90
2018-09-24T17:12:02.010Z,53.50
2018-09-24T17:14:38.197Z,53.60
2018-09-24T17:17:13.623Z,53.70
2018-09-24T17:19:49.473Z,53.70
2018-09-24T17:22:25.240Z,53.80
2018-09-24T17:25:01.073Z,54.10
2018-09-24T17:27:36.774Z,53.90
2018-09-24T17:30:12.661Z,53.90
2018-09-24T17:32:48.421Z,53.90
2018-09-24T17:35:24.093Z,54.00
2018-09-24T17:38:00.254Z,54.20
2018-09-24T17:40:36.054Z,54.30
2018-09-24T17:43:11.820Z,54.50
2018-09-24T17:45:47.715Z,54.60
2018-09-24T17:48:23.600Z,54.70
2018-09-24T17:50:59.391Z,54.90
2018-09-24T17:53:35.074Z,54.80
2018-09-24T17:56:11.036Z,55.00
2018-09-24T17:58:46.770Z,54.60
2018-09-24T18:01:22.523Z,54.70
2018-09-24T18:03:58.215Z,54.80
2018-09-24T18:06:33.875Z,55.10
2018-09-24T18:09:11.215Z,54.70
2018-09-24T18:11:47.569Z,55.20
2018-09-24T18:14:23.069Z,55.20
2018-09-24T18:16:58.893Z,55.50
2018-09-24T18:19:34.340Z,55.40
2018-09-24T18:22:09.805Z,55.50
2018-09-24T18:24:50.589Z,55.70
2018-09-24T18:27:26.520Z,56.00
2018-09-24T18:30:02.444Z,55.90
2018-09-24T18:32:37.909Z,55.90
2018-09-24T18:35:13.606Z,56.10
2018-09-24T18:37:48.997Z,56.20
2018-09-24T18:40:24.563Z,56.20
2018-09-24T18:43:00.387Z,56.20
2018-09-24T18:45:36.208Z,56.20
2018-09-24T18:48:11.893Z,56.40
2018-09-24T18:50:47.575Z,56.30
2018-09-24T18:56:07.341Z,56.40
2018-09-24T18:58:43.077Z,56.70
2018-09-24T19:01:18.534Z,56.70
2018-09-24T19:03:54.225Z,56.70
2018-09-24T19:06:29.946Z,56.60
2018-09-24T19:09:05.433Z,56.80
2018-09-24T19:11:40.907Z,56.80
2018-09-24T19:14:16.569Z,56.70
2018-09-24T19:16:52.015Z,56.90
2018-09-24T19:19:27.434Z,56.90
2018-09-24T19:22:03.101Z,56.90
2018-09-24T19:24:38.468Z,56.70
2018-09-24T19:27:14.045Z,56.40
2018-09-24T19:29:49.830Z,56.70
2018-09-24T19:32:25.607Z,56.50
2018-09-24T19:35:01.296Z,56.60
2018-09-24T19:37:36.843Z,56.70
2018-09-24T19:40:12.548Z,56.80
2018-09-24T19:42:48.285Z,56.80
2018-09-24T19:45:23.945Z,56.90
2018-09-24T19:47:59.588Z,57.00
2018-09-24T19:50:35.436Z,57.00
2018-09-24T19:53:11.048Z,56.90
2018-09-24T19:55:46.701Z,56.60
2018-09-24T19:58:22.086Z,56.80
2018-09-24T20:00:57.729Z,56.80
2018-09-24T20:03:33.222Z,56.80
2018-09-24T20:06:08.624Z,57.00
2018-09-24T20:08:44.456Z,57.10
2018-09-24T20:11:20.103Z,56.90
2018-09-24T20:13:56.053Z,56.70
2018-09-24T20:16:31.491Z,56.60
2018-09-24T20:19:07.362Z,56.80
2018-09-24T20:21:42.877Z,56.70
2018-09-24T20:24:18.251Z,57.00
2018-09-24T20:26:53.917Z,57.00
2018-09-24T20:29:29.318Z,57.30
2018-09-24T20:32:05.107Z,57.10
2018-09-24T20:34:40.448Z,57.20
2018-09-24T20:37:16.215Z,57.40
2018-09-24T20:39:51.937Z,57.30
2018-09-24T20:42:27.457Z,57.30
2018-09-24T20:45:03.400Z,57.30
2018-09-24T20:47:38.914Z,57.40
2018-09-24T20:50:14.416Z,57.60
2018-09-24T20:52:50.068Z,57.70
2018-09-24T20:55:26.005Z,57.80
2018-09-24T20:58:01.625Z,57.80
2018-09-24T21:00:37.412Z,57.80
2018-09-24T21:03:13.185Z,57.90
2018-09-24T21:05:48.724Z,57.90
2018-09-24T21:08:24.093Z,57.90
2018-09-24T21:10:59.661Z,58.00
2018-09-24T21:13:35.424Z,58.00
2018-09-24T21:16:11.569Z,58.10
2018-09-24T21:18:47.292Z,58.00
2018-09-24T21:21:22.937Z,57.90
2018-09-24T21:23:58.606Z,58.20
2018-09-24T21:26:34.392Z,58.30
2018-09-24T21:29:10.061Z,58.20
2018-09-24T21:31:45.813Z,58.40
2018-09-24T21:34:21.680Z,58.60
2018-09-24T21:36:57.450Z,58.70
2018-09-24T21:39:32.960Z,58.70
2018-09-24T21:42:08.289Z,58.80
2018-09-24T21:44:44.004Z,58.90
2018-09-24T21:47:20.126Z,59.00
2018-09-24T21:49:55.812Z,59.00
2018-09-24T21:52:31.307Z,58.80
2018-09-24T21:55:07.044Z,58.90
2018-09-24T21:57:42.698Z,58.80
2018-09-24T22:00:18.344Z,58.70
2018-09-24T22:02:53.840Z,58.80
2018-09-24T22:05:29.220Z,58.80
2018-09-24T22:08:04.997Z,58.90
2018-09-24T22:10:40.412Z,58.90
2018-09-24T22:13:16.185Z,58.80
2018-09-24T22:15:52.920Z,59.00
2018-09-24T22:18:28.468Z,59.00
2018-09-24T22:21:04.120Z,58.90
2018-09-24T22:23:39.709Z,58.90
2018-09-24T22:26:15.173Z,59.00
2018-09-24T22:28:50.945Z,59.10
2018-09-24T22:31:26.684Z,59.30
2018-09-24T22:34:02.169Z,59.30
2018-09-24T22:36:37.920Z,59.30
2018-09-24T22:39:14.877Z,59.50
2018-09-24T22:41:50.456Z,59.60
2018-09-24T22:44:26.060Z,59.40
2018-09-24T22:47:01.726Z,59.80
2018-09-24T22:49:37.401Z,59.00
2018-09-24T22:52:12.862Z,59.10
2018-09-24T22:54:48.509Z,59.60
2018-09-24T22:57:24.148Z,59.10
2018-09-24T22:59:59.850Z,59.30
2018-09-24T23:02:35.185Z,59.40
2018-09-24T23:05:10.993Z,59.40
2018-09-24T23:07:46.872Z,59.60
2018-09-24T23:10:22.528Z,59.60
2018-09-24T23:12:57.936Z,59.40
2018-09-24T23:15:33.635Z,59.50
2018-09-24T23:18:09.296Z,59.40
2018-09-24T23:20:45.153Z,59.20
2018-09-24T23:23:20.689Z,59.40
2018-09-24T23:25:56.910Z,59.30
2018-09-24T23:28:32.521Z,59.40
2018-09-24T23:31:08.121Z,59.40
2018-09-24T23:33:44.009Z,59.60
2018-09-24T23:36:19.641Z,59.80
2018-09-24T23:38:55.420Z,59.80
2018-09-24T23:41:31.073Z,60.00
2018-09-24T23:44:06.558Z,59.90
2018-09-24T23:46:42.336Z,60.10
2018-09-24T23:49:17.921Z,60.10
2018-09-24T23:51:53.472Z,60.00
2018-09-24T23:54:29.132Z,60.00
2018-09-24T23:57:04.603Z,60.10
2018-09-24T23:59:40.293Z,60.10
